sensor_id;sensor_type;location;lat;lon;timestamp;temperature;humidity
40822;DHT22;26542;50.836;5.356;2023-03-16T00:00:46;6.40;99.90
40822;DHT22;26542;50.836;5.356;2023-03-16T00:03:14;6.40;99.90
40822;DHT22;26542;50.836;5.356;2023-03-16T00:05:49;6.50;99.90
40822;DHT22;26542;50.836;5.356;2023-03-16T00:08:16;6.50;99.90
40822;DHT22;26542;50.836;5.356;2023-03-16T00:10:42;6.50;99.90
40822;DHT22;26542;50.836;5.356;2023-03-16T00:13:18;6.60;99.90
40822;DHT22;26542;50.836;5.356;2023-03-16T00:18:17;6.60;99.90
40822;DHT22;26542;50.836;5.356;2023-03-16T00:20:52;6.40;99.90
40822;DHT22;26542;50.836;5.356;2023-03-16T00:23:21;6.60;99.90
40822;DHT22;26542;50.836;5.356;2023-03-16T00:25:56;6.70;99.90
40822;DHT22;26542;50.836;5.356;2023-03-16T00:28:23;6.60;99.90
40822;DHT22;26542;50.836;5.356;2023-03-16T00:30:49;6.60;99.90
40822;DHT22;26542;50.836;5.356;2023-03-16T00:33:15;6.60;99.90
40822;DHT22;26542;50.836;5.356;2023-03-16T00:35:41;6.60;99.90
40822;DHT22;26542;50.836;5.356;2023-03-16T00:38:18;6.60;99.90
40822;DHT22;26542;50.836;5.356;2023-03-16T00:40:45;6.60;99.90
40822;DHT22;26542;50.836;5.356;2023-03-16T00:43:12;6.60;99.90
40822;DHT22;26542;50.836;5.356;2023-03-16T00:45:45;6.70;99.90
40822;DHT22;26542;50.836;5.356;2023-03-16T00:48:11;6.60;99.90
40822;DHT22;26542;50.836;5.356;2023-03-16T00:50:37;6.60;99.90
40822;DHT22;26542;50.836;5.356;2023-03-16T00:53:03;6.60;99.90
40822;DHT22;26542;50.836;5.356;2023-03-16T00:55:29;6.70;99.90
40822;DHT22;26542;50.836;5.356;2023-03-16T00:57:57;6.80;99.90
40822;DHT22;26542;50.836;5.356;2023-03-16T01:00:22;6.80;99.90
40822;DHT22;26542;50.836;5.356;2023-03-16T01:02:52;6.90;99.90
40822;DHT22;26542;50.836;5.356;2023-03-16T01:05:18;6.90;99.90
40822;DHT22;26542;50.836;5.356;2023-03-16T01:07:44;6.90;99.90
40822;DHT22;26542;50.836;5.356;2023-03-16T01:10:10;6.80;99.90
40822;DHT22;26542;50.836;5.356;2023-03-16T01:12:36;6.70;99.90
40822;DHT22;26542;50.836;5.356;2023-03-16T01:15:02;6.80;99.90
40822;DHT22;26542;50.836;5.356;2023-03-16T01:17:27;6.80;99.90
40822;DHT22;26542;50.836;5.356;2023-03-16T01:19:53;6.80;99.90
40822;DHT22;26542;50.836;5.356;2023-03-16T01:22:19;6.90;99.90
40822;DHT22;26542;50.836;5.356;2023-03-16T01:24:46;6.90;99.90
40822;DHT22;26542;50.836;5.356;2023-03-16T01:27:15;6.80;99.90
40822;DHT22;26542;50.836;5.356;2023-03-16T01:29:40;6.80;99.90
40822;DHT22;26542;50.836;5.356;2023-03-16T01:32:10;6.70;99.90
40822;DHT22;26542;50.836;5.356;2023-03-16T01:34:36;6.80;99.90
40822;DHT22;26542;50.836;5.356;2023-03-16T01:37:05;6.70;99.90
40822;DHT22;26542;50.836;5.356;2023-03-16T01:39:30;6.70;99.90
40822;DHT22;26542;50.836;5.356;2023-03-16T01:41:56;6.70;99.90
40822;DHT22;26542;50.836;5.356;2023-03-16T01:44:26;6.70;99.90
40822;DHT22;26542;50.836;5.356;2023-03-16T01:46:59;6.70;99.90
40822;DHT22;26542;50.836;5.356;2023-03-16T01:49:31;6.70;99.90
40822;DHT22;26542;50.836;5.356;2023-03-16T01:54:47;6.80;99.90
40822;DHT22;26542;50.836;5.356;2023-03-16T01:57:42;6.80;99.90
40822;DHT22;26542;50.836;5.356;2023-03-16T02:00:14;6.70;99.90
40822;DHT22;26542;50.836;5.356;2023-03-16T02:02:51;6.80;99.90
40822;DHT22;26542;50.836;5.356;2023-03-16T02:05:35;6.90;99.90
40822;DHT22;26542;50.836;5.356;2023-03-16T02:08:07;6.80;99.90
40822;DHT22;26542;50.836;5.356;2023-03-16T02:10:34;6.90;99.90
40822;DHT22;26542;50.836;5.356;2023-03-16T02:13:03;6.90;99.90
40822;DHT22;26542;50.836;5.356;2023-03-16T02:15:31;6.90;99.90
40822;DHT22;26542;50.836;5.356;2023-03-16T02:18:00;6.90;99.90
40822;DHT22;26542;50.836;5.356;2023-03-16T02:20:45;6.90;99.90
40822;DHT22;26542;50.836;5.356;2023-03-16T02:23:19;6.90;99.90
40822;DHT22;26542;50.836;5.356;2023-03-16T02:26:09;6.90;99.90
40822;DHT22;26542;50.836;5.356;2023-03-16T02:31:31;7.00;99.90
40822;DHT22;26542;50.836;5.356;2023-03-16T02:33:59;6.90;99.90
40822;DHT22;26542;50.836;5.356;2023-03-16T02:36:25;6.90;99.90
40822;DHT22;26542;50.836;5.356;2023-03-16T02:38:51;7.00;99.90
40822;DHT22;26542;50.836;5.356;2023-03-16T02:41:19;7.00;99.90
40822;DHT22;26542;50.836;5.356;2023-03-16T02:44:28;7.00;99.90
40822;DHT22;26542;50.836;5.356;2023-03-16T02:46:49;7.00;99.90
40822;DHT22;26542;50.836;5.356;2023-03-16T02:49:37;7.00;99.90
40822;DHT22;26542;50.836;5.356;2023-03-16T02:52:08;6.90;99.90
40822;DHT22;26542;50.836;5.356;2023-03-16T02:54:34;7.00;99.90
40822;DHT22;26542;50.836;5.356;2023-03-16T02:57:02;7.00;99.90
40822;DHT22;26542;50.836;5.356;2023-03-16T02:59:29;7.00;99.90
40822;DHT22;26542;50.836;5.356;2023-03-16T03:01:57;7.10;99.90
40822;DHT22;26542;50.836;5.356;2023-03-16T03:04:23;7.10;99.90
40822;DHT22;26542;50.836;5.356;2023-03-16T03:06:52;7.00;99.90
40822;DHT22;26542;50.836;5.356;2023-03-16T03:09:20;7.10;99.90
40822;DHT22;26542;50.836;5.356;2023-03-16T03:11:45;7.10;99.90
40822;DHT22;26542;50.836;5.356;2023-03-16T03:14:11;7.10;99.90
40822;DHT22;26542;50.836;5.356;2023-03-16T03:16:37;7.00;99.90
40822;DHT22;26542;50.836;5.356;2023-03-16T03:19:03;7.10;99.90
40822;DHT22;26542;50.836;5.356;2023-03-16T03:21:28;7.10;99.90
40822;DHT22;26542;50.836;5.356;2023-03-16T03:23:54;7.30;99.90
40822;DHT22;26542;50.836;5.356;2023-03-16T03:26:20;7.40;99.90
40822;DHT22;26542;50.836;5.356;2023-03-16T03:28:46;7.30;99.90
40822;DHT22;26542;50.836;5.356;2023-03-16T03:31:16;7.40;99.90
40822;DHT22;26542;50.836;5.356;2023-03-16T03:33:42;7.60;99.90
40822;DHT22;26542;50.836;5.356;2023-03-16T03:36:08;7.40;99.90
40822;DHT22;26542;50.836;5.356;2023-03-16T03:38:37;7.50;99.90
40822;DHT22;26542;50.836;5.356;2023-03-16T03:41:06;7.40;99.90
40822;DHT22;26542;50.836;5.356;2023-03-16T03:43:34;7.40;99.90
40822;DHT22;26542;50.836;5.356;2023-03-16T03:46:01;7.40;99.90
40822;DHT22;26542;50.836;5.356;2023-03-16T03:48:27;7.40;99.90
40822;DHT22;26542;50.836;5.356;2023-03-16T03:50:53;7.50;99.90
40822;DHT22;26542;50.836;5.356;2023-03-16T03:53:20;7.50;99.90
40822;DHT22;26542;50.836;5.356;2023-03-16T03:55:48;7.50;99.90
40822;DHT22;26542;50.836;5.356;2023-03-16T03:58:14;7.50;99.90
40822;DHT22;26542;50.836;5.356;2023-03-16T04:00:40;7.50;99.90
40822;DHT22;26542;50.836;5.356;2023-03-16T04:03:05;7.50;99.90
40822;DHT22;26542;50.836;5.356;2023-03-16T04:05:31;7.60;99.90
40822;DHT22;26542;50.836;5.356;2023-03-16T04:07:57;7.40;99.90
40822;DHT22;26542;50.836;5.356;2023-03-16T04:10:24;7.50;99.90
40822;DHT22;26542;50.836;5.356;2023-03-16T04:12:50;7.60;99.90
40822;DHT22;26542;50.836;5.356;2023-03-16T04:15:16;7.50;99.90
40822;DHT22;26542;50.836;5.356;2023-03-16T04:17:44;7.40;99.90
40822;DHT22;26542;50.836;5.356;2023-03-16T04:20:10;7.50;99.90
40822;DHT22;26542;50.836;5.356;2023-03-16T04:22:40;7.40;99.90
40822;DHT22;26542;50.836;5.356;2023-03-16T04:25:08;7.40;99.90
40822;DHT22;26542;50.836;5.356;2023-03-16T04:27:34;7.40;99.90
40822;DHT22;26542;50.836;5.356;2023-03-16T04:30:05;7.50;99.90
40822;DHT22;26542;50.836;5.356;2023-03-16T04:32:35;7.50;99.90
40822;DHT22;26542;50.836;5.356;2023-03-16T04:35:01;7.60;99.90
40822;DHT22;26542;50.836;5.356;2023-03-16T04:37:27;7.60;99.90
40822;DHT22;26542;50.836;5.356;2023-03-16T04:39:53;7.60;99.90
40822;DHT22;26542;50.836;5.356;2023-03-16T04:42:19;7.60;99.90
40822;DHT22;26542;50.836;5.356;2023-03-16T04:44:47;7.50;99.90
40822;DHT22;26542;50.836;5.356;2023-03-16T04:47:14;7.50;99.90
40822;DHT22;26542;50.836;5.356;2023-03-16T04:49:43;7.40;99.90
40822;DHT22;26542;50.836;5.356;2023-03-16T04:52:11;7.40;99.90
40822;DHT22;26542;50.836;5.356;2023-03-16T04:54:36;7.40;99.90
40822;DHT22;26542;50.836;5.356;2023-03-16T04:57:02;7.40;99.90
40822;DHT22;26542;50.836;5.356;2023-03-16T04:59:30;7.40;99.90
40822;DHT22;26542;50.836;5.356;2023-03-16T05:01:56;7.50;99.90
40822;DHT22;26542;50.836;5.356;2023-03-16T05:04:22;7.40;99.90
40822;DHT22;26542;50.836;5.356;2023-03-16T05:06:48;7.30;99.90
40822;DHT22;26542;50.836;5.356;2023-03-16T05:09:14;7.30;99.90
40822;DHT22;26542;50.836;5.356;2023-03-16T05:11:40;7.20;99.90
40822;DHT22;26542;50.836;5.356;2023-03-16T05:14:06;7.20;99.90
40822;DHT22;26542;50.836;5.356;2023-03-16T05:16:31;7.20;99.90
40822;DHT22;26542;50.836;5.356;2023-03-16T05:19:00;7.20;99.90
40822;DHT22;26542;50.836;5.356;2023-03-16T05:21:26;7.20;99.90
40822;DHT22;26542;50.836;5.356;2023-03-16T05:23:52;7.20;99.90
40822;DHT22;26542;50.836;5.356;2023-03-16T05:26:18;7.30;99.90
40822;DHT22;26542;50.836;5.356;2023-03-16T05:28:44;7.40;99.90
40822;DHT22;26542;50.836;5.356;2023-03-16T05:31:10;7.30;99.90
40822;DHT22;26542;50.836;5.356;2023-03-16T05:33:38;7.30;99.90
40822;DHT22;26542;50.836;5.356;2023-03-16T05:36:04;7.30;99.90
40822;DHT22;26542;50.836;5.356;2023-03-16T05:38:32;7.20;99.90
40822;DHT22;26542;50.836;5.356;2023-03-16T05:40:58;7.30;99.90
40822;DHT22;26542;50.836;5.356;2023-03-16T05:43:29;7.30;99.90
40822;DHT22;26542;50.836;5.356;2023-03-16T05:45:56;7.30;99.90
40822;DHT22;26542;50.836;5.356;2023-03-16T05:48:22;7.30;99.90
40822;DHT22;26542;50.836;5.356;2023-03-16T05:50:51;7.40;99.90
40822;DHT22;26542;50.836;5.356;2023-03-16T05:53:17;7.40;99.90
40822;DHT22;26542;50.836;5.356;2023-03-16T05:55:49;7.40;99.90
40822;DHT22;26542;50.836;5.356;2023-03-16T05:58:15;7.30;99.90
40822;DHT22;26542;50.836;5.356;2023-03-16T06:00:41;7.30;99.90
40822;DHT22;26542;50.836;5.356;2023-03-16T06:03:08;7.30;99.90
40822;DHT22;26542;50.836;5.356;2023-03-16T06:05:39;7.30;99.90
40822;DHT22;26542;50.836;5.356;2023-03-16T06:08:06;7.30;99.90
40822;DHT22;26542;50.836;5.356;2023-03-16T06:10:34;7.30;99.90
40822;DHT22;26542;50.836;5.356;2023-03-16T06:13:02;7.30;99.90
40822;DHT22;26542;50.836;5.356;2023-03-16T06:15:33;7.40;99.90
40822;DHT22;26542;50.836;5.356;2023-03-16T06:17:59;7.40;99.90
40822;DHT22;26542;50.836;5.356;2023-03-16T06:20:25;7.40;99.90
40822;DHT22;26542;50.836;5.356;2023-03-16T06:22:53;7.40;99.90
40822;DHT22;26542;50.836;5.356;2023-03-16T06:25:18;7.40;99.90
40822;DHT22;26542;50.836;5.356;2023-03-16T06:27:46;7.40;99.90
40822;DHT22;26542;50.836;5.356;2023-03-16T06:30:14;7.30;99.90
40822;DHT22;26542;50.836;5.356;2023-03-16T06:32:40;7.30;99.90
40822;DHT22;26542;50.836;5.356;2023-03-16T06:35:07;7.30;99.90
40822;DHT22;26542;50.836;5.356;2023-03-16T06:37:34;7.40;99.90
40822;DHT22;26542;50.836;5.356;2023-03-16T06:40:00;7.10;99.90
40822;DHT22;26542;50.836;5.356;2023-03-16T06:42:25;7.40;99.90
40822;DHT22;26542;50.836;5.356;2023-03-16T06:44:52;7.50;99.90
40822;DHT22;26542;50.836;5.356;2023-03-16T06:47:20;7.50;99.90
40822;DHT22;26542;50.836;5.356;2023-03-16T06:49:46;7.50;99.90
40822;DHT22;26542;50.836;5.356;2023-03-16T06:52:12;7.50;99.90
40822;DHT22;26542;50.836;5.356;2023-03-16T06:54:39;7.50;99.90
40822;DHT22;26542;50.836;5.356;2023-03-16T06:57:05;7.40;99.90
40822;DHT22;26542;50.836;5.356;2023-03-16T06:59:34;7.30;99.90
40822;DHT22;26542;50.836;5.356;2023-03-16T07:02:02;7.40;99.90
40822;DHT22;26542;50.836;5.356;2023-03-16T07:04:28;7.50;99.90
40822;DHT22;26542;50.836;5.356;2023-03-16T07:06:54;7.50;99.90
40822;DHT22;26542;50.836;5.356;2023-03-16T07:09:22;7.60;99.90
40822;DHT22;26542;50.836;5.356;2023-03-16T07:11:48;7.60;99.90
40822;DHT22;26542;50.836;5.356;2023-03-16T07:14:13;7.60;99.90
40822;DHT22;26542;50.836;5.356;2023-03-16T07:16:39;7.70;99.90
40822;DHT22;26542;50.836;5.356;2023-03-16T07:19:05;7.70;99.90
40822;DHT22;26542;50.836;5.356;2023-03-16T07:21:31;7.70;99.90
40822;DHT22;26542;50.836;5.356;2023-03-16T07:24:04;7.70;99.90
40822;DHT22;26542;50.836;5.356;2023-03-16T07:26:32;7.70;99.90
40822;DHT22;26542;50.836;5.356;2023-03-16T07:28:58;7.70;99.90
40822;DHT22;26542;50.836;5.356;2023-03-16T07:31:24;7.80;99.90
40822;DHT22;26542;50.836;5.356;2023-03-16T07:33:50;7.90;99.90
40822;DHT22;26542;50.836;5.356;2023-03-16T07:36:16;7.90;99.90
40822;DHT22;26542;50.836;5.356;2023-03-16T07:38:47;7.90;99.90
40822;DHT22;26542;50.836;5.356;2023-03-16T07:41:16;8.00;99.90
40822;DHT22;26542;50.836;5.356;2023-03-16T07:43:41;8.00;99.90
40822;DHT22;26542;50.836;5.356;2023-03-16T07:46:13;8.00;99.90
40822;DHT22;26542;50.836;5.356;2023-03-16T07:48:39;8.10;99.90
40822;DHT22;26542;50.836;5.356;2023-03-16T07:51:09;8.20;99.90
40822;DHT22;26542;50.836;5.356;2023-03-16T07:53:38;8.20;99.90
40822;DHT22;26542;50.836;5.356;2023-03-16T07:56:04;8.20;99.90
40822;DHT22;26542;50.836;5.356;2023-03-16T07:58:31;8.30;99.90
40822;DHT22;26542;50.836;5.356;2023-03-16T08:00:57;8.30;99.90
40822;DHT22;26542;50.836;5.356;2023-03-16T08:03:27;8.30;99.90
40822;DHT22;26542;50.836;5.356;2023-03-16T08:05:53;8.40;99.90
40822;DHT22;26542;50.836;5.356;2023-03-16T08:08:20;8.50;99.90
40822;DHT22;26542;50.836;5.356;2023-03-16T08:10:49;8.60;99.90
40822;DHT22;26542;50.836;5.356;2023-03-16T08:13:19;8.60;99.90
40822;DHT22;26542;50.836;5.356;2023-03-16T08:15:48;8.70;99.90
40822;DHT22;26542;50.836;5.356;2023-03-16T08:18:20;8.70;99.90
40822;DHT22;26542;50.836;5.356;2023-03-16T08:20:48;8.80;99.90
40822;DHT22;26542;50.836;5.356;2023-03-16T08:23:14;8.90;99.90
40822;DHT22;26542;50.836;5.356;2023-03-16T08:25:40;8.90;99.90
40822;DHT22;26542;50.836;5.356;2023-03-16T08:28:06;9.00;99.90
40822;DHT22;26542;50.836;5.356;2023-03-16T08:30:33;9.10;99.90
40822;DHT22;26542;50.836;5.356;2023-03-16T08:33:00;9.10;99.90
40822;DHT22;26542;50.836;5.356;2023-03-16T08:35:28;9.00;99.90
40822;DHT22;26542;50.836;5.356;2023-03-16T08:37:54;9.00;99.90
40822;DHT22;26542;50.836;5.356;2023-03-16T08:40:21;9.10;99.90
40822;DHT22;26542;50.836;5.356;2023-03-16T08:42:47;9.20;99.90
40822;DHT22;26542;50.836;5.356;2023-03-16T08:45:15;9.10;99.90
40822;DHT22;26542;50.836;5.356;2023-03-16T08:47:42;9.20;99.90
40822;DHT22;26542;50.836;5.356;2023-03-16T08:50:10;9.30;99.90
40822;DHT22;26542;50.836;5.356;2023-03-16T08:52:37;9.30;99.90
40822;DHT22;26542;50.836;5.356;2023-03-16T08:55:04;9.50;99.90
40822;DHT22;26542;50.836;5.356;2023-03-16T08:57:31;9.60;99.90
40822;DHT22;26542;50.836;5.356;2023-03-16T09:00:03;9.80;99.50
40822;DHT22;26542;50.836;5.356;2023-03-16T09:02:40;10.20;99.70
40822;DHT22;26542;50.836;5.356;2023-03-16T09:05:08;10.00;99.90
40822;DHT22;26542;50.836;5.356;2023-03-16T09:07:34;9.90;98.80
40822;DHT22;26542;50.836;5.356;2023-03-16T09:10:01;10.00;99.80
40822;DHT22;26542;50.836;5.356;2023-03-16T09:12:30;10.00;99.00
40822;DHT22;26542;50.836;5.356;2023-03-16T09:14:56;9.80;98.30
40822;DHT22;26542;50.836;5.356;2023-03-16T09:17:21;9.90;98.60
40822;DHT22;26542;50.836;5.356;2023-03-16T09:19:51;9.80;98.20
40822;DHT22;26542;50.836;5.356;2023-03-16T09:22:20;9.80;99.00
40822;DHT22;26542;50.836;5.356;2023-03-16T09:24:47;9.90;99.00
40822;DHT22;26542;50.836;5.356;2023-03-16T09:27:13;10.00;99.10
40822;DHT22;26542;50.836;5.356;2023-03-16T09:29:42;10.10;99.70
40822;DHT22;26542;50.836;5.356;2023-03-16T09:32:09;10.20;98.60
40822;DHT22;26542;50.836;5.356;2023-03-16T09:34:38;10.30;99.20
40822;DHT22;26542;50.836;5.356;2023-03-16T09:37:06;10.50;99.70
40822;DHT22;26542;50.836;5.356;2023-03-16T09:39:32;10.70;99.30
40822;DHT22;26542;50.836;5.356;2023-03-16T09:47:32;11.10;98.90
40822;DHT22;26542;50.836;5.356;2023-03-16T09:50:02;11.10;98.30
40822;DHT22;26542;50.836;5.356;2023-03-16T09:52:47;11.20;97.10
40822;DHT22;26542;50.836;5.356;2023-03-16T09:55:33;11.30;97.30
40822;DHT22;26542;50.836;5.356;2023-03-16T09:58:04;11.40;97.40
40822;DHT22;26542;50.836;5.356;2023-03-16T10:06:13;11.60;95.60
40822;DHT22;26542;50.836;5.356;2023-03-16T10:11:30;11.70;96.60
40822;DHT22;26542;50.836;5.356;2023-03-16T10:20:10;12.00;96.30
40822;DHT22;26542;50.836;5.356;2023-03-16T10:22:44;12.00;95.10
40822;DHT22;26542;50.836;5.356;2023-03-16T10:25:21;12.10;95.80
40822;DHT22;26542;50.836;5.356;2023-03-16T10:27:50;12.20;95.50
40822;DHT22;26542;50.836;5.356;2023-03-16T10:30:27;12.30;96.10
40822;DHT22;26542;50.836;5.356;2023-03-16T10:32:55;12.40;95.30
40822;DHT22;26542;50.836;5.356;2023-03-16T10:35:45;12.30;94.80
40822;DHT22;26542;50.836;5.356;2023-03-16T10:41:17;12.20;93.80
40822;DHT22;26542;50.836;5.356;2023-03-16T10:46:18;12.30;95.20
40822;DHT22;26542;50.836;5.356;2023-03-16T10:49:01;12.40;94.40
40822;DHT22;26542;50.836;5.356;2023-03-16T10:51:32;12.50;94.60
40822;DHT22;26542;50.836;5.356;2023-03-16T10:54:24;12.60;93.10
40822;DHT22;26542;50.836;5.356;2023-03-16T10:56:49;12.70;93.30
40822;DHT22;26542;50.836;5.356;2023-03-16T10:59:32;12.80;94.00
40822;DHT22;26542;50.836;5.356;2023-03-16T11:02:00;12.90;93.70
40822;DHT22;26542;50.836;5.356;2023-03-16T11:04:30;13.00;93.80
40822;DHT22;26542;50.836;5.356;2023-03-16T11:06:59;13.10;93.60
40822;DHT22;26542;50.836;5.356;2023-03-16T11:09:32;13.30;93.80
40822;DHT22;26542;50.836;5.356;2023-03-16T11:11:59;13.40;93.30
40822;DHT22;26542;50.836;5.356;2023-03-16T11:14:27;13.40;91.90
40822;DHT22;26542;50.836;5.356;2023-03-16T11:17:03;13.40;92.00
40822;DHT22;26542;50.836;5.356;2023-03-16T11:19:52;13.40;92.00
40822;DHT22;26542;50.836;5.356;2023-03-16T11:22:24;13.30;92.20
40822;DHT22;26542;50.836;5.356;2023-03-16T11:30:26;13.60;92.00
40822;DHT22;26542;50.836;5.356;2023-03-16T11:32:53;13.80;92.80
40822;DHT22;26542;50.836;5.356;2023-03-16T11:35:31;13.90;91.00
40822;DHT22;26542;50.836;5.356;2023-03-16T11:38:52;14.00;91.60
40822;DHT22;26542;50.836;5.356;2023-03-16T11:41:01;14.00;92.30
40822;DHT22;26542;50.836;5.356;2023-03-16T11:43:50;14.20;91.30
40822;DHT22;26542;50.836;5.356;2023-03-16T11:46:45;14.30;91.50
40822;DHT22;26542;50.836;5.356;2023-03-16T11:55:28;14.40;88.90
40822;DHT22;26542;50.836;5.356;2023-03-16T12:17:11;14.70;87.60
40822;DHT22;26542;50.836;5.356;2023-03-16T12:22:18;15.00;89.30
40822;DHT22;26542;50.836;5.356;2023-03-16T12:24:45;15.00;90.00
40822;DHT22;26542;50.836;5.356;2023-03-16T12:27:37;15.00;86.00
40822;DHT22;26542;50.836;5.356;2023-03-16T12:32:52;14.90;81.90
40822;DHT22;26542;50.836;5.356;2023-03-16T12:35:25;14.80;82.40
40822;DHT22;26542;50.836;5.356;2023-03-16T12:46:03;15.00;88.40
40822;DHT22;26542;50.836;5.356;2023-03-16T12:48:53;15.10;86.10
40822;DHT22;26542;50.836;5.356;2023-03-16T12:51:19;15.40;89.80
40822;DHT22;26542;50.836;5.356;2023-03-16T12:53:53;15.50;86.90
40822;DHT22;26542;50.836;5.356;2023-03-16T12:56:33;15.70;87.90
40822;DHT22;26542;50.836;5.356;2023-03-16T12:59:02;15.60;84.50
40822;DHT22;26542;50.836;5.356;2023-03-16T13:01:40;15.60;87.50
40822;DHT22;26542;50.836;5.356;2023-03-16T13:04:10;15.70;85.60
40822;DHT22;26542;50.836;5.356;2023-03-16T13:06:45;15.70;85.60
40822;DHT22;26542;50.836;5.356;2023-03-16T13:09:18;15.90;86.50
40822;DHT22;26542;50.836;5.356;2023-03-16T13:11:46;16.00;84.20
40822;DHT22;26542;50.836;5.356;2023-03-16T13:17:24;16.00;84.00
40822;DHT22;26542;50.836;5.356;2023-03-16T13:22:48;16.30;86.90
40822;DHT22;26542;50.836;5.356;2023-03-16T13:25:42;16.40;85.30
40822;DHT22;26542;50.836;5.356;2023-03-16T13:28:14;16.20;83.30
40822;DHT22;26542;50.836;5.356;2023-03-16T13:30:46;16.20;82.90
40822;DHT22;26542;50.836;5.356;2023-03-16T13:33:22;16.30;84.70
40822;DHT22;26542;50.836;5.356;2023-03-16T13:35:55;16.40;84.50
40822;DHT22;26542;50.836;5.356;2023-03-16T13:38:26;16.50;86.40
40822;DHT22;26542;50.836;5.356;2023-03-16T13:41:02;16.50;80.40
40822;DHT22;26542;50.836;5.356;2023-03-16T13:43:29;16.50;81.70
40822;DHT22;26542;50.836;5.356;2023-03-16T13:46:14;16.50;81.60
40822;DHT22;26542;50.836;5.356;2023-03-16T13:48:41;16.50;82.00
40822;DHT22;26542;50.836;5.356;2023-03-16T13:51:18;16.40;80.50
40822;DHT22;26542;50.836;5.356;2023-03-16T13:53:46;16.30;82.80
40822;DHT22;26542;50.836;5.356;2023-03-16T13:56:18;16.50;84.30
40822;DHT22;26542;50.836;5.356;2023-03-16T13:58:50;16.70;82.70
40822;DHT22;26542;50.836;5.356;2023-03-16T14:01:44;16.70;79.60
40822;DHT22;26542;50.836;5.356;2023-03-16T14:04:11;16.80;78.90
40822;DHT22;26542;50.836;5.356;2023-03-16T14:06:55;16.70;80.00
40822;DHT22;26542;50.836;5.356;2023-03-16T14:09:24;16.60;78.20
40822;DHT22;26542;50.836;5.356;2023-03-16T14:11:51;16.70;82.10
40822;DHT22;26542;50.836;5.356;2023-03-16T14:14:29;16.80;80.50
40822;DHT22;26542;50.836;5.356;2023-03-16T14:17:03;16.70;79.50
40822;DHT22;26542;50.836;5.356;2023-03-16T14:19:39;16.60;78.40
40822;DHT22;26542;50.836;5.356;2023-03-16T14:22:32;16.50;77.20
40822;DHT22;26542;50.836;5.356;2023-03-16T14:24:59;16.60;79.00
40822;DHT22;26542;50.836;5.356;2023-03-16T14:30:17;16.60;77.60
40822;DHT22;26542;50.836;5.356;2023-03-16T14:35:32;16.70;81.60
40822;DHT22;26542;50.836;5.356;2023-03-16T14:38:28;16.70;78.50
40822;DHT22;26542;50.836;5.356;2023-03-16T14:40:56;16.80;78.70
40822;DHT22;26542;50.836;5.356;2023-03-16T14:43:31;16.90;77.30
40822;DHT22;26542;50.836;5.356;2023-03-16T14:45:59;17.00;77.30
40822;DHT22;26542;50.836;5.356;2023-03-16T14:48:25;17.00;76.10
40822;DHT22;26542;50.836;5.356;2023-03-16T14:50:59;17.00;76.40
40822;DHT22;26542;50.836;5.356;2023-03-16T14:53:28;17.00;76.60
40822;DHT22;26542;50.836;5.356;2023-03-16T14:55:55;17.10;77.70
40822;DHT22;26542;50.836;5.356;2023-03-16T14:58:21;17.00;78.30
40822;DHT22;26542;50.836;5.356;2023-03-16T15:00:47;17.00;75.10
40822;DHT22;26542;50.836;5.356;2023-03-16T15:03:15;16.80;75.10
40822;DHT22;26542;50.836;5.356;2023-03-16T15:05:45;16.80;77.40
40822;DHT22;26542;50.836;5.356;2023-03-16T15:10:45;17.00;80.00
40822;DHT22;26542;50.836;5.356;2023-03-16T15:13:15;17.10;81.30
40822;DHT22;26542;50.836;5.356;2023-03-16T15:15:48;17.10;80.00
40822;DHT22;26542;50.836;5.356;2023-03-16T15:18:14;17.10;80.70
40822;DHT22;26542;50.836;5.356;2023-03-16T15:20:44;16.90;81.30
40822;DHT22;26542;50.836;5.356;2023-03-16T15:23:15;16.90;81.80
40822;DHT22;26542;50.836;5.356;2023-03-16T15:25:54;16.90;81.00
40822;DHT22;26542;50.836;5.356;2023-03-16T15:28:26;16.70;81.10
40822;DHT22;26542;50.836;5.356;2023-03-16T15:30:54;16.80;82.00
40822;DHT22;26542;50.836;5.356;2023-03-16T15:33:26;16.80;80.00
40822;DHT22;26542;50.836;5.356;2023-03-16T15:35:54;16.80;81.60
40822;DHT22;26542;50.836;5.356;2023-03-16T15:38:31;16.60;78.90
40822;DHT22;26542;50.836;5.356;2023-03-16T15:40:58;16.60;80.70
40822;DHT22;26542;50.836;5.356;2023-03-16T15:43:26;16.50;80.90
40822;DHT22;26542;50.836;5.356;2023-03-16T15:45:56;16.60;82.50
40822;DHT22;26542;50.836;5.356;2023-03-16T15:48:26;16.60;79.80
40822;DHT22;26542;50.836;5.356;2023-03-16T15:50:56;16.20;79.90
40822;DHT22;26542;50.836;5.356;2023-03-16T15:56:05;16.20;81.10
40822;DHT22;26542;50.836;5.356;2023-03-16T15:58:36;16.10;82.00
40822;DHT22;26542;50.836;5.356;2023-03-16T16:01:03;16.10;81.00
40822;DHT22;26542;50.836;5.356;2023-03-16T16:03:32;16.20;82.50
40822;DHT22;26542;50.836;5.356;2023-03-16T16:05:58;16.30;80.70
40822;DHT22;26542;50.836;5.356;2023-03-16T16:11:01;16.40;79.70
40822;DHT22;26542;50.836;5.356;2023-03-16T16:13:32;16.40;79.90
40822;DHT22;26542;50.836;5.356;2023-03-16T16:15:58;16.40;81.30
40822;DHT22;26542;50.836;5.356;2023-03-16T16:18:33;16.20;81.80
40822;DHT22;26542;50.836;5.356;2023-03-16T16:21:07;16.20;81.90
40822;DHT22;26542;50.836;5.356;2023-03-16T16:23:37;16.20;81.70
40822;DHT22;26542;50.836;5.356;2023-03-16T16:26:06;16.10;82.40
40822;DHT22;26542;50.836;5.356;2023-03-16T16:28:34;16.00;82.70
40822;DHT22;26542;50.836;5.356;2023-03-16T16:31:02;15.90;81.70
40822;DHT22;26542;50.836;5.356;2023-03-16T16:33:30;15.80;83.60
40822;DHT22;26542;50.836;5.356;2023-03-16T16:36:05;15.80;83.90
40822;DHT22;26542;50.836;5.356;2023-03-16T16:38:33;15.70;83.80
40822;DHT22;26542;50.836;5.356;2023-03-16T16:41:00;15.60;83.80
40822;DHT22;26542;50.836;5.356;2023-03-16T16:43:44;15.50;84.60
40822;DHT22;26542;50.836;5.356;2023-03-16T16:46:19;15.40;84.30
40822;DHT22;26542;50.836;5.356;2023-03-16T16:51:24;15.30;84.40
40822;DHT22;26542;50.836;5.356;2023-03-16T16:53:54;15.30;85.40
40822;DHT22;26542;50.836;5.356;2023-03-16T16:56:27;15.30;83.90
40822;DHT22;26542;50.836;5.356;2023-03-16T16:58:56;15.30;83.20
40822;DHT22;26542;50.836;5.356;2023-03-16T17:01:27;15.20;84.30
40822;DHT22;26542;50.836;5.356;2023-03-16T17:03:54;15.20;83.10
40822;DHT22;26542;50.836;5.356;2023-03-16T17:06:28;15.10;82.90
40822;DHT22;26542;50.836;5.356;2023-03-16T17:09:11;14.90;83.00
40822;DHT22;26542;50.836;5.356;2023-03-16T17:12:01;14.80;84.20
40822;DHT22;26542;50.836;5.356;2023-03-16T17:14:30;14.90;84.00
40822;DHT22;26542;50.836;5.356;2023-03-16T17:17:12;14.80;84.60
40822;DHT22;26542;50.836;5.356;2023-03-16T17:19:38;14.70;84.60
40822;DHT22;26542;50.836;5.356;2023-03-16T17:22:16;14.70;86.30
40822;DHT22;26542;50.836;5.356;2023-03-16T17:24:46;14.60;86.40
40822;DHT22;26542;50.836;5.356;2023-03-16T17:27:13;14.60;86.70
40822;DHT22;26542;50.836;5.356;2023-03-16T17:29:43;14.60;86.60
40822;DHT22;26542;50.836;5.356;2023-03-16T17:32:20;14.50;87.20
40822;DHT22;26542;50.836;5.356;2023-03-16T17:34:50;14.50;87.30
40822;DHT22;26542;50.836;5.356;2023-03-16T17:37:21;14.40;87.60